sensor_id;sensor_type;location;lat;lon;timestamp;P1;durP1;ratioP1;P2;durP2;ratioP2
53674;SDS011;39574;50.534;8.500;2024-02-26T00:06:11;6.6;;;3.1;;
53674;SDS011;39574;50.534;8.500;2024-02-26T00:11:10;6.0;;;2.9;;
53674;SDS011;39574;50.534;8.500;2024-02-26T00:21:07;5.6;;;2.8;;
53674;SDS011;39574;50.534;8.500;2024-02-26T00:26:06;5.6;;;2.6;;
53674;SDS011;39574;50.534;8.500;2024-02-26T00:31:09;5.4;;;2.5;;
53674;SDS011;39574;50.534;8.500;2024-02-26T00:36:04;5.4;;;2.5;;
53674;SDS011;39574;50.534;8.500;2024-02-26T00:41:03;5.2;;;2.4;;
53674;SDS011;39574;50.534;8.500;2024-02-26T00:46:01;5.3;;;2.6;;
53674;SDS011;39574;50.534;8.500;2024-02-26T00:51:00;5.3;;;2.6;;
53674;SDS011;39574;50.534;8.500;2024-02-26T00:55:59;5.7;;;2.6;;
53674;SDS011;39574;50.534;8.500;2024-02-26T01:00:58;6.0;;;2.6;;
53674;SDS011;39574;50.534;8.500;2024-02-26T01:05:57;5.8;;;2.6;;
53674;SDS011;39574;50.534;8.500;2024-02-26T01:10:56;5.5;;;2.4;;
53674;SDS011;39574;50.534;8.500;2024-02-26T01:15:58;5.1;;;2.3;;
53674;SDS011;39574;50.534;8.500;2024-02-26T01:20:53;5.0;;;2.4;;
53674;SDS011;39574;50.534;8.500;2024-02-26T01:25:52;5.3;;;2.4;;
53674;SDS011;39574;50.534;8.500;2024-02-26T01:30:52;5.9;;;2.4;;
53674;SDS011;39574;50.534;8.500;2024-02-26T01:35:50;5.9;;;2.4;;
53674;SDS011;39574;50.534;8.500;2024-02-26T01:40:49;5.5;;;2.4;;
53674;SDS011;39574;50.534;8.500;2024-02-26T01:45:48;5.4;;;2.5;;
53674;SDS011;39574;50.534;8.500;2024-02-26T01:50:47;5.4;;;2.5;;
53674;SDS011;39574;50.534;8.500;2024-02-26T01:55:46;5.2;;;2.6;;
53674;SDS011;39574;50.534;8.500;2024-02-26T02:00:45;5.2;;;2.6;;
53674;SDS011;39574;50.534;8.500;2024-02-26T02:05:43;4.9;;;2.5;;
53674;SDS011;39574;50.534;8.500;2024-02-26T02:10:42;4.9;;;2.5;;
53674;SDS011;39574;50.534;8.500;2024-02-26T02:15:41;5.1;;;2.4;;
53674;SDS011;39574;50.534;8.500;2024-02-26T02:25:39;5.0;;;2.4;;
53674;SDS011;39574;50.534;8.500;2024-02-26T02:30:38;5.2;;;2.5;;
53674;SDS011;39574;50.534;8.500;2024-02-26T02:35:37;5.2;;;2.5;;
53674;SDS011;39574;50.534;8.500;2024-02-26T02:40:35;5.3;;;2.5;;
53674;SDS011;39574;50.534;8.500;2024-02-26T02:45:33;5.5;;;2.6;;
53674;SDS011;39574;50.534;8.500;2024-02-26T02:50:37;5.1;;;2.4;;
53674;SDS011;39574;50.534;8.500;2024-02-26T02:55:32;5.3;;;2.4;;
53674;SDS011;39574;50.534;8.500;2024-02-26T03:00:31;5.4;;;2.4;;
53674;SDS011;39574;50.534;8.500;2024-02-26T03:05:33;5.3;;;2.4;;
53674;SDS011;39574;50.534;8.500;2024-02-26T03:10:28;6.0;;;2.4;;
53674;SDS011;39574;50.534;8.500;2024-02-26T03:15:26;5.9;;;2.4;;
53674;SDS011;39574;50.534;8.500;2024-02-26T03:20:25;5.7;;;2.4;;
53674;SDS011;39574;50.534;8.500;2024-02-26T03:25:24;6.5;;;3.1;;
53674;SDS011;39574;50.534;8.500;2024-02-26T03:30:23;5.9;;;3.0;;
53674;SDS011;39574;50.534;8.500;2024-02-26T03:35:21;6.0;;;2.9;;
53674;SDS011;39574;50.534;8.500;2024-02-26T03:40:20;5.3;;;2.6;;
53674;SDS011;39574;50.534;8.500;2024-02-26T03:45:24;4.8;;;2.4;;
53674;SDS011;39574;50.534;8.500;2024-02-26T03:50:18;5.0;;;2.4;;
53674;SDS011;39574;50.534;8.500;2024-02-26T03:55:16;4.8;;;2.5;;
53674;SDS011;39574;50.534;8.500;2024-02-26T04:00:16;4.9;;;2.6;;
53674;SDS011;39574;50.534;8.500;2024-02-26T04:10:14;6.0;;;2.5;;
53674;SDS011;39574;50.534;8.500;2024-02-26T04:15:12;5.6;;;2.4;;
53674;SDS011;39574;50.534;8.500;2024-02-26T04:25:11;5.5;;;2.3;;
53674;SDS011;39574;50.534;8.500;2024-02-26T04:30:09;5.4;;;2.4;;
53674;SDS011;39574;50.534;8.500;2024-02-26T04:40:07;5.2;;;2.4;;
53674;SDS011;39574;50.534;8.500;2024-02-26T04:45:09;5.2;;;2.4;;
53674;SDS011;39574;50.534;8.500;2024-02-26T04:50:04;4.9;;;2.3;;
53674;SDS011;39574;50.534;8.500;2024-02-26T04:55:03;5.2;;;2.5;;
53674;SDS011;39574;50.534;8.500;2024-02-26T05:00:04;5.5;;;2.4;;
53674;SDS011;39574;50.534;8.500;2024-02-26T05:05:06;5.5;;;2.4;;
53674;SDS011;39574;50.534;8.500;2024-02-26T05:09:59;5.5;;;2.4;;
53674;SDS011;39574;50.534;8.500;2024-02-26T05:14:58;5.3;;;2.5;;
53674;SDS011;39574;50.534;8.500;2024-02-26T05:19:58;5.1;;;2.5;;
53674;SDS011;39574;50.534;8.500;2024-02-26T05:24:56;5.3;;;2.5;;
53674;SDS011;39574;50.534;8.500;2024-02-26T05:29:55;5.6;;;2.5;;
53674;SDS011;39574;50.534;8.500;2024-02-26T05:34:54;5.9;;;2.5;;
53674;SDS011;39574;50.534;8.500;2024-02-26T05:39:53;6.0;;;2.6;;
53674;SDS011;39574;50.534;8.500;2024-02-26T05:44:52;16.9;;;7.2;;
53674;SDS011;39574;50.534;8.500;2024-02-26T05:49:50;14.0;;;6.1;;
53674;SDS011;39574;50.534;8.500;2024-02-26T05:54:50;11.4;;;5.2;;
53674;SDS011;39574;50.534;8.500;2024-02-26T05:59:49;9.0;;;4.0;;
53674;SDS011;39574;50.534;8.500;2024-02-26T06:04:47;5.9;;;2.8;;
53674;SDS011;39574;50.534;8.500;2024-02-26T06:09:46;5.7;;;2.7;;
53674;SDS011;39574;50.534;8.500;2024-02-26T06:14:44;5.6;;;2.7;;
53674;SDS011;39574;50.534;8.500;2024-02-26T06:19:44;5.4;;;2.6;;
53674;SDS011;39574;50.534;8.500;2024-02-26T06:24:48;5.1;;;2.6;;
53674;SDS011;39574;50.534;8.500;2024-02-26T06:34:40;12.3;;;6.7;;
53674;SDS011;39574;50.534;8.500;2024-02-26T06:39:39;11.8;;;5.9;;
53674;SDS011;39574;50.534;8.500;2024-02-26T06:44:38;9.9;;;5.1;;
53674;SDS011;39574;50.534;8.500;2024-02-26T06:49:37;7.8;;;4.0;;
53674;SDS011;39574;50.534;8.500;2024-02-26T06:54:35;6.2;;;3.3;;
53674;SDS011;39574;50.534;8.500;2024-02-26T06:59:35;7.8;;;4.9;;
53674;SDS011;39574;50.534;8.500;2024-02-26T07:04:33;8.7;;;4.5;;
53674;SDS011;39574;50.534;8.500;2024-02-26T07:09:32;8.0;;;4.1;;
53674;SDS011;39574;50.534;8.500;2024-02-26T07:14:30;8.5;;;4.2;;
53674;SDS011;39574;50.534;8.500;2024-02-26T07:19:29;11.3;;;5.5;;
53674;SDS011;39574;50.534;8.500;2024-02-26T07:24:29;11.1;;;5.8;;
53674;SDS011;39574;50.534;8.500;2024-02-26T07:29:27;12.7;;;7.1;;
53674;SDS011;39574;50.534;8.500;2024-02-26T07:34:30;16.7;;;9.6;;
53674;SDS011;39574;50.534;8.500;2024-02-26T07:39:25;16.6;;;9.5;;
53674;SDS011;39574;50.534;8.500;2024-02-26T07:44:28;13.1;;;7.3;;
53674;SDS011;39574;50.534;8.500;2024-02-26T07:49:24;10.2;;;5.3;;
53674;SDS011;39574;50.534;8.500;2024-02-26T08:04:19;7.8;;;3.8;;
53674;SDS011;39574;50.534;8.500;2024-02-26T08:09:17;7.1;;;3.4;;
53674;SDS011;39574;50.534;8.500;2024-02-26T08:14:16;10.1;;;5.3;;
53674;SDS011;39574;50.534;8.500;2024-02-26T08:24:14;10.1;;;5.0;;
53674;SDS011;39574;50.534;8.500;2024-02-26T08:29:17;9.3;;;4.7;;
53674;SDS011;39574;50.534;8.500;2024-02-26T08:34:12;8.9;;;4.2;;
53674;SDS011;39574;50.534;8.500;2024-02-26T08:39:11;8.0;;;3.7;;
53674;SDS011;39574;50.534;8.500;2024-02-26T08:44:09;7.7;;;3.6;;
53674;SDS011;39574;50.534;8.500;2024-02-26T08:49:08;7.4;;;3.6;;
53674;SDS011;39574;50.534;8.500;2024-02-26T08:54:08;6.9;;;3.5;;
53674;SDS011;39574;50.534;8.500;2024-02-26T09:04:05;6.7;;;3.4;;
53674;SDS011;39574;50.534;8.500;2024-02-26T09:09:04;6.8;;;3.4;;
53674;SDS011;39574;50.534;8.500;2024-02-26T09:14:02;7.8;;;3.5;;
53674;SDS011;39574;50.534;8.500;2024-02-26T09:19:02;7.9;;;3.5;;
53674;SDS011;39574;50.534;8.500;2024-02-26T09:24:00;7.9;;;3.5;;
53674;SDS011;39574;50.534;8.500;2024-02-26T09:28:59;8.1;;;3.9;;
53674;SDS011;39574;50.534;8.500;2024-02-26T09:33:58;7.6;;;3.9;;
53674;SDS011;39574;50.534;8.500;2024-02-26T09:38:57;7.8;;;3.9;;
53674;SDS011;39574;50.534;8.500;2024-02-26T09:43:56;7.1;;;3.8;;
53674;SDS011;39574;50.534;8.500;2024-02-26T09:48:54;7.3;;;3.9;;
53674;SDS011;39574;50.534;8.500;2024-02-26T09:53:55;7.5;;;3.9;;
53674;SDS011;39574;50.534;8.500;2024-02-26T09:58:52;7.4;;;3.9;;
53674;SDS011;39574;50.534;8.500;2024-02-26T10:03:51;7.5;;;4.0;;
53674;SDS011;39574;50.534;8.500;2024-02-26T10:08:50;7.4;;;4.0;;
53674;SDS011;39574;50.534;8.500;2024-02-26T10:13:52;7.3;;;3.8;;
53674;SDS011;39574;50.534;8.500;2024-02-26T10:18:48;7.2;;;3.9;;
53674;SDS011;39574;50.534;8.500;2024-02-26T10:23:46;7.2;;;3.9;;
53674;SDS011;39574;50.534;8.500;2024-02-26T10:28:46;7.2;;;4.0;;
53674;SDS011;39574;50.534;8.500;2024-02-26T10:33:44;7.4;;;4.0;;
53674;SDS011;39574;50.534;8.500;2024-02-26T10:38:43;7.8;;;4.0;;
53674;SDS011;39574;50.534;8.500;2024-02-26T10:43:42;8.2;;;4.2;;
53674;SDS011;39574;50.534;8.500;2024-02-26T10:53:40;8.5;;;4.5;;
53674;SDS011;39574;50.534;8.500;2024-02-26T10:58:38;8.4;;;4.3;;
53674;SDS011;39574;50.534;8.500;2024-02-26T11:03:41;8.1;;;4.3;;
53674;SDS011;39574;50.534;8.500;2024-02-26T11:08:37;8.0;;;4.3;;
53674;SDS011;39574;50.534;8.500;2024-02-26T11:13:35;8.6;;;5.0;;
53674;SDS011;39574;50.534;8.500;2024-02-26T11:18:34;8.4;;;4.9;;
53674;SDS011;39574;50.534;8.500;2024-02-26T11:23:33;8.8;;;4.8;;
53674;SDS011;39574;50.534;8.500;2024-02-26T11:28:32;8.5;;;4.7;;
53674;SDS011;39574;50.534;8.500;2024-02-26T11:33:30;8.1;;;4.3;;
53674;SDS011;39574;50.534;8.500;2024-02-26T11:38:29;8.1;;;4.3;;
53674;SDS011;39574;50.534;8.500;2024-02-26T11:43:49;8.7;;;4.6;;
53674;SDS011;39574;50.534;8.500;2024-02-26T11:48:28;8.6;;;4.5;;
53674;SDS011;39574;50.534;8.500;2024-02-26T11:53:26;8.2;;;4.5;;
53674;SDS011;39574;50.534;8.500;2024-02-26T11:58:25;9.0;;;4.6;;
53674;SDS011;39574;50.534;8.500;2024-02-26T12:03:28;8.9;;;4.8;;
53674;SDS011;39574;50.534;8.500;2024-02-26T12:08:24;9.4;;;5.2;;
53674;SDS011;39574;50.534;8.500;2024-02-26T12:13:22;9.2;;;5.2;;
53674;SDS011;39574;50.534;8.500;2024-02-26T12:18:20;9.7;;;5.4;;
53674;SDS011;39574;50.534;8.500;2024-02-26T12:23:19;9.6;;;5.2;;
53674;SDS011;39574;50.534;8.500;2024-02-26T12:28:18;9.6;;;5.2;;
53674;SDS011;39574;50.534;8.500;2024-02-26T12:33:17;9.7;;;5.2;;
53674;SDS011;39574;50.534;8.500;2024-02-26T12:38:17;9.2;;;4.9;;
53674;SDS011;39574;50.534;8.500;2024-02-26T12:43:16;9.5;;;5.0;;
53674;SDS011;39574;50.534;8.500;2024-02-26T12:48:17;10.6;;;5.5;;
53674;SDS011;39574;50.534;8.500;2024-02-26T12:53:13;10.1;;;5.3;;
53674;SDS011;39574;50.534;8.500;2024-02-26T12:58:12;9.6;;;5.1;;
53674;SDS011;39574;50.534;8.500;2024-02-26T13:03:11;9.0;;;4.7;;
53674;SDS011;39574;50.534;8.500;2024-02-26T13:08:16;8.8;;;4.7;;
53674;SDS011;39574;50.534;8.500;2024-02-26T13:13:09;10.3;;;4.9;;
53674;SDS011;39574;50.534;8.500;2024-02-26T13:18:09;10.8;;;5.3;;
53674;SDS011;39574;50.534;8.500;2024-02-26T13:23:08;10.1;;;5.0;;
53674;SDS011;39574;50.534;8.500;2024-02-26T13:28:07;9.7;;;5.0;;
53674;SDS011;39574;50.534;8.500;2024-02-26T13:33:07;9.5;;;5.0;;
53674;SDS011;39574;50.534;8.500;2024-02-26T13:38:04;9.2;;;5.2;;
53674;SDS011;39574;50.534;8.500;2024-02-26T13:43:03;8.9;;;5.0;;
53674;SDS011;39574;50.534;8.500;2024-02-26T13:48:02;9.2;;;5.0;;
53674;SDS011;39574;50.534;8.500;2024-02-26T13:58:00;8.8;;;4.6;;
53674;SDS011;39574;50.534;8.500;2024-02-26T14:02:59;8.9;;;4.5;;
53674;SDS011;39574;50.534;8.500;2024-02-26T14:07:58;8.6;;;4.3;;
53674;SDS011;39574;50.534;8.500;2024-02-26T14:12:57;8.6;;;4.4;;
53674;SDS011;39574;50.534;8.500;2024-02-26T14:17:56;8.3;;;4.4;;
53674;SDS011;39574;50.534;8.500;2024-02-26T14:22:55;8.6;;;4.4;;
53674;SDS011;39574;50.534;8.500;2024-02-26T14:27:59;8.8;;;4.4;;
53674;SDS011;39574;50.534;8.500;2024-02-26T14:37:53;8.7;;;4.3;;
53674;SDS011;39574;50.534;8.500;2024-02-26T14:42:56;8.8;;;4.4;;
53674;SDS011;39574;50.534;8.500;2024-02-26T14:52:50;8.1;;;4.2;;
53674;SDS011;39574;50.534;8.500;2024-02-26T15:02:48;7.5;;;3.9;;
53674;SDS011;39574;50.534;8.500;2024-02-26T15:07:47;7.6;;;4.0;;
53674;SDS011;39574;50.534;8.500;2024-02-26T15:12:46;7.3;;;3.9;;
53674;SDS011;39574;50.534;8.500;2024-02-26T15:17:47;7.5;;;4.0;;
53674;SDS011;39574;50.534;8.500;2024-02-26T15:22:45;8.3;;;4.3;;
53674;SDS011;39574;50.534;8.500;2024-02-26T15:27:49;9.5;;;4.4;;
53674;SDS011;39574;50.534;8.500;2024-02-26T15:32:43;9.4;;;4.4;;
53674;SDS011;39574;50.534;8.500;2024-02-26T15:37:42;8.9;;;4.1;;
53674;SDS011;39574;50.534;8.500;2024-02-26T15:42:41;8.4;;;4.1;;
53674;SDS011;39574;50.534;8.500;2024-02-26T15:52:44;7.8;;;3.8;;
53674;SDS011;39574;50.534;8.500;2024-02-26T15:57:40;8.8;;;3.9;;
53674;SDS011;39574;50.534;8.500;2024-02-26T16:02:39;8.8;;;3.9;;
53674;SDS011;39574;50.534;8.500;2024-02-26T16:07:38;8.3;;;3.8;;
53674;SDS011;39574;50.534;8.500;2024-02-26T16:12:38;8.7;;;3.9;;
53674;SDS011;39574;50.534;8.500;2024-02-26T16:17:37;8.6;;;4.1;;
53674;SDS011;39574;50.534;8.500;2024-02-26T16:22:35;8.4;;;4.2;;
53674;SDS011;39574;50.534;8.500;2024-02-26T16:27:33;8.7;;;4.4;;
53674;SDS011;39574;50.534;8.500;2024-02-26T16:32:32;8.5;;;4.4;;
53674;SDS011;39574;50.534;8.500;2024-02-26T16:47:29;9.8;;;4.8;;
53674;SDS011;39574;50.534;8.500;2024-02-26T17:02:26;9.3;;;5.1;;
53674;SDS011;39574;50.534;8.500;2024-02-26T17:07:26;9.6;;;5.2;;
53674;SDS011;39574;50.534;8.500;2024-02-26T17:12:24;10.1;;;5.5;;
53674;SDS011;39574;50.534;8.500;2024-02-26T17:22:23;10.4;;;5.7;;
53674;SDS011;39574;50.534;8.500;2024-02-26T17:27:26;10.5;;;5.7;;
53674;SDS011;39574;50.534;8.500;2024-02-26T17:32:21;10.7;;;5.9;;
53674;SDS011;39574;50.534;8.500;2024-02-26T17:37:19;11.0;;;6.0;;
53674;SDS011;39574;50.534;8.500;2024-02-26T17:47:18;11.0;;;6.2;;
53674;SDS011;39574;50.534;8.500;2024-02-26T17:52:17;11.1;;;6.2;;
53674;SDS011;39574;50.534;8.500;2024-02-26T17:57:15;13.9;;;6.9;;
53674;SDS011;39574;50.534;8.500;2024-02-26T18:07:14;13.7;;;7.0;;
53674;SDS011;39574;50.534;8.500;2024-02-26T18:12:12;13.6;;;7.2;;
53674;SDS011;39574;50.534;8.500;2024-02-26T18:17:12;14.3;;;7.3;;
53674;SDS011;39574;50.534;8.500;2024-02-26T18:22:11;14.2;;;7.5;;
53674;SDS011;39574;50.534;8.500;2024-02-26T18:27:14;14.1;;;7.6;;
53674;SDS011;39574;50.534;8.500;2024-02-26T18:37:08;14.5;;;7.9;;
53674;SDS011;39574;50.534;8.500;2024-02-26T18:42:07;14.5;;;8.1;;
53674;SDS011;39574;50.534;8.500;2024-02-26T18:47:06;14.8;;;8.1;;
53674;SDS011;39574;50.534;8.500;2024-02-26T18:52:05;14.3;;;8.1;;
53674;SDS011;39574;50.534;8.500;2024-02-26T18:57:10;15.1;;;8.5;;
53674;SDS011;39574;50.534;8.500;2024-02-26T19:02:02;16.1;;;8.9;;
53674;SDS011;39574;50.534;8.500;2024-02-26T19:07:02;15.8;;;8.9;;
53674;SDS011;39574;50.534;8.500;2024-02-26T19:12:00;16.2;;;9.1;;
53674;SDS011;39574;50.534;8.500;2024-02-26T19:17:00;16.3;;;9.4;;
53674;SDS011;39574;50.534;8.500;2024-02-26T19:21:59;16.4;;;9.6;;
53674;SDS011;39574;50.534;8.500;2024-02-26T19:26:57;17.8;;;10.0;;
53674;SDS011;39574;50.534;8.500;2024-02-26T19:31:57;20.3;;;11.1;;
53674;SDS011;39574;50.534;8.500;2024-02-26T19:36:56;20.0;;;11.3;;
53674;SDS011;39574;50.534;8.500;2024-02-26T19:41:55;21.4;;;11.4;;
53674;SDS011;39574;50.534;8.500;2024-02-26T19:46:53;21.8;;;12.0;;
53674;SDS011;39574;50.534;8.500;2024-02-26T19:51:53;21.3;;;12.1;;
53674;SDS011;39574;50.534;8.500;2024-02-26T19:56:52;21.5;;;12.4;;
53674;SDS011;39574;50.534;8.500;2024-02-26T20:01:50;21.0;;;12.3;;
53674;SDS011;39574;50.534;8.500;2024-02-26T20:06:50;22.1;;;12.9;;
53674;SDS011;39574;50.534;8.500;2024-02-26T20:16:48;22.6;;;13.3;;
53674;SDS011;39574;50.534;8.500;2024-02-26T20:21:47;24.3;;;13.8;;
53674;SDS011;39574;50.534;8.500;2024-02-26T20:26:46;24.4;;;14.3;;
53674;SDS011;39574;50.534;8.500;2024-02-26T20:31:44;23.8;;;14.2;;
53674;SDS011;39574;50.534;8.500;2024-02-26T20:36:43;23.0;;;14.1;;
53674;SDS011;39574;50.534;8.500;2024-02-26T20:41:43;23.1;;;14.3;;
53674;SDS011;39574;50.534;8.500;2024-02-26T20:46:42;24.2;;;14.8;;
53674;SDS011;39574;50.534;8.500;2024-02-26T20:51:40;26.0;;;15.6;;
53674;SDS011;39574;50.534;8.500;2024-02-26T20:56:39;26.8;;;16.0;;
53674;SDS011;39574;50.534;8.500;2024-02-26T21:01:38;27.9;;;16.6;;
53674;SDS011;39574;50.534;8.500;2024-02-26T21:06:38;28.3;;;16.8;;
53674;SDS011;39574;50.534;8.500;2024-02-26T21:16:36;28.2;;;17.1;;
53674;SDS011;39574;50.534;8.500;2024-02-26T21:21:34;28.8;;;17.1;;
53674;SDS011;39574;50.534;8.500;2024-02-26T21:26:33;29.2;;;17.5;;
53674;SDS011;39574;50.534;8.500;2024-02-26T21:31:33;29.0;;;17.3;;
53674;SDS011;39574;50.534;8.500;2024-02-26T21:36:31;30.3;;;17.9;;
53674;SDS011;39574;50.534;8.500;2024-02-26T21:41:31;31.8;;;18.5;;
53674;SDS011;39574;50.534;8.500;2024-02-26T21:46:29;31.0;;;18.7;;
53674;SDS011;39574;50.534;8.500;2024-02-26T21:51:28;31.4;;;18.6;;
53674;SDS011;39574;50.534;8.500;2024-02-26T22:01:28;31.2;;;18.8;;
53674;SDS011;39574;50.534;8.500;2024-02-26T22:06:26;31.6;;;18.9;;
53674;SDS011;39574;50.534;8.500;2024-02-26T22:11:24;31.9;;;18.5;;
53674;SDS011;39574;50.534;8.500;2024-02-26T22:16:24;32.9;;;18.9;;
53674;SDS011;39574;50.534;8.500;2024-02-26T22:21:22;32.4;;;19.0;;
53674;SDS011;39574;50.534;8.500;2024-02-26T22:26:21;31.6;;;18.4;;
53674;SDS011;39574;50.534;8.500;2024-02-26T22:31:20;31.2;;;18.1;;
53674;SDS011;39574;50.534;8.500;2024-02-26T22:36:19;29.7;;;17.5;;
53674;SDS011;39574;50.534;8.500;2024-02-26T22:46:17;29.5;;;17.2;;
53674;SDS011;39574;50.534;8.500;2024-02-26T22:51:16;29.4;;;17.1;;
53674;SDS011;39574;50.534;8.500;2024-02-26T22:56:15;27.8;;;16.6;;
53674;SDS011;39574;50.534;8.500;2024-02-26T23:01:14;27.5;;;16.8;;
53674;SDS011;39574;50.534;8.500;2024-02-26T23:06:14;29.8;;;17.6;;
53674;SDS011;39574;50.534;8.500;2024-02-26T23:11:12;31.0;;;18.4;;
53674;SDS011;39574;50.534;8.500;2024-02-26T23:16:10;31.3;;;18.8;;
53674;SDS011;39574;50.534;8.500;2024-02-26T23:21:10;30.9;;;18.4;;
53674;SDS011;39574;50.534;8.500;2024-02-26T23:26:09;30.0;;;18.0;;
53674;SDS011;39574;50.534;8.500;2024-02-26T23:31:07;28.9;;;17.4;;
53674;SDS011;39574;50.534;8.500;2024-02-26T23:36:06;30.0;;;17.8;;
53674;SDS011;39574;50.534;8.500;2024-02-26T23:41:05;29.7;;;18.0;;
53674;SDS011;39574;50.534;8.500;2024-02-26T23:46:05;29.7;;;17.7;;
53674;SDS011;39574;50.534;8.500;2024-02-26T23:51:04;30.2;;;17.8;;
53674;SDS011;39574;50.534;8.500;2024-02-26T23:56:03;31.1;;;17.8;;
